sensor_id;sensor_type;location;lat;lon;timestamp;pressure;altitude;pressure_sealevel;temperature;humidity
66206;BME280;53009;52.490;4.976;2022-08-21T00:00:39;101800;;;16.8;2.2
66206;BME280;53009;52.490;4.976;2022-08-21T00:02:58;101800;;;16.8;2.2
66206;BME280;53009;52.490;4.976;2022-08-21T00:04:59;101800;;;16.8;2.3
66206;BME280;53009;52.490;4.976;2022-08-21T00:08:05;101800;;;16.8;2.1
66206;BME280;53009;52.490;4.976;2022-08-21T00:11:19;101800;;;16.7;1.9
66206;BME280;53009;52.490;4.976;2022-08-21T00:13:29;101800;;;16.7;2.6
66206;BME280;53009;52.490;4.976;2022-08-21T00:16:43;101800;;;16.7;3.1
66206;BME280;53009;52.490;4.976;2022-08-21T00:21:10;101800;;;16.7;3.7
66206;BME280;53009;52.490;4.976;2022-08-21T00:24:26;101800;;;16.6;3.7
66206;BME280;53009;52.490;4.976;2022-08-21T00:26:19;101800;;;16.6;3.8
66206;BME280;53009;52.490;4.976;2022-08-21T00:28:30;101800;;;16.6;4.2
66206;BME280;53009;52.490;4.976;2022-08-21T00:32:56;101800;;;16.6;5.4
66206;BME280;53009;52.490;4.976;2022-08-21T00:37:55;101800;;;16.6;6.2
66206;BME280;53009;52.490;4.976;2022-08-21T00:39:21;101800;;;16.5;6.1
66206;BME280;53009;52.490;4.976;2022-08-21T00:43:32;101800;;;16.5;6.7
66206;BME280;53009;52.490;4.976;2022-08-21T00:46:54;101800;;;16.5;7
66206;BME280;53009;52.490;4.976;2022-08-21T00:49:04;101800;;;16.5;7.5
66206;BME280;53009;52.490;4.976;2022-08-21T00:52:11;101800;;;16.5;7.7
66206;BME280;53009;52.490;4.976;2022-08-21T00:53:08;101800;;;16.5;7.8
66206;BME280;53009;52.490;4.976;2022-08-21T00:54:06;101800;;;16.5;8
66206;BME280;53009;52.490;4.976;2022-08-21T00:59:06;101800;;;16.5;8.1
66206;BME280;53009;52.490;4.976;2022-08-21T01:04:07;101800;;;16.3;8.2
66206;BME280;53009;52.490;4.976;2022-08-21T01:09:06;101800;;;16.3;9.2
66206;BME280;53009;52.490;4.976;2022-08-21T01:14:06;101800;;;16.3;9.1
66206;BME280;53009;52.490;4.976;2022-08-21T01:19:06;101800;;;16.2;9.2
66206;BME280;53009;52.490;4.976;2022-08-21T01:24:06;101800;;;16.2;9.8
66206;BME280;53009;52.490;4.976;2022-08-21T01:29:07;101800;;;16.2;10.4
66206;BME280;53009;52.490;4.976;2022-08-21T01:34:06;101800;;;16.2;11.8
66206;BME280;53009;52.490;4.976;2022-08-21T01:39:06;101800;;;16.2;12.6
66206;BME280;53009;52.490;4.976;2022-08-21T01:44:07;101800;;;16.2;13.2
66206;BME280;53009;52.490;4.976;2022-08-21T01:49:06;101800;;;16.2;13.9
66206;BME280;53009;52.490;4.976;2022-08-21T01:54:06;101800;;;16.2;14.9
66206;BME280;53009;52.490;4.976;2022-08-21T01:59:06;101800;;;16.2;16.1
66206;BME280;53009;52.490;4.976;2022-08-21T02:04:06;101700;;;16.2;16.8
66206;BME280;53009;52.490;4.976;2022-08-21T02:09:07;101700;;;16.3;17.2
66206;BME280;53009;52.490;4.976;2022-08-21T02:14:06;101700;;;16.2;17.4
66206;BME280;53009;52.490;4.976;2022-08-21T02:19:06;101700;;;16.3;17
66206;BME280;53009;52.490;4.976;2022-08-21T02:24:06;101700;;;16.3;16.5
66206;BME280;53009;52.490;4.976;2022-08-21T02:29:06;101700;;;16.2;16.3
66206;BME280;53009;52.490;4.976;2022-08-21T02:34:06;101700;;;16.2;15.9
66206;BME280;53009;52.490;4.976;2022-08-21T02:39:06;101700;;;16.1;15.8
66206;BME280;53009;52.490;4.976;2022-08-21T02:44:06;101700;;;16;15.7
66206;BME280;53009;52.490;4.976;2022-08-21T02:49:06;101700;;;16;15.6
66206;BME280;53009;52.490;4.976;2022-08-21T02:54:06;101700;;;16;15.6
66206;BME280;53009;52.490;4.976;2022-08-21T02:59:06;101700;;;15.9;15.5
66206;BME280;53009;52.490;4.976;2022-08-21T03:04:06;101700;;;15.9;15.5
66206;BME280;53009;52.490;4.976;2022-08-21T03:09:06;101700;;;15.9;15.4
66206;BME280;53009;52.490;4.976;2022-08-21T03:14:06;101700;;;15.8;15.5
66206;BME280;53009;52.490;4.976;2022-08-21T03:19:06;101700;;;15.8;15.5
66206;BME280;53009;52.490;4.976;2022-08-21T03:24:06;101700;;;15.7;15.4
66206;BME280;53009;52.490;4.976;2022-08-21T03:29:06;101700;;;15.7;15.4
66206;BME280;53009;52.490;4.976;2022-08-21T03:34:06;101700;;;15.6;15.5
66206;BME280;53009;52.490;4.976;2022-08-21T03:39:06;101700;;;15.6;15.6
66206;BME280;53009;52.490;4.976;2022-08-21T03:44:06;101700;;;15.6;15.7
66206;BME280;53009;52.490;4.976;2022-08-21T03:49:06;101700;;;15.6;15.6
66206;BME280;53009;52.490;4.976;2022-08-21T03:54:06;101700;;;15.6;15.5
66206;BME280;53009;52.490;4.976;2022-08-21T03:59:06;101700;;;15.6;15.3
66206;BME280;53009;52.490;4.976;2022-08-21T04:04:06;101700;;;15.6;14.4
66206;BME280;53009;52.490;4.976;2022-08-21T04:09:06;101700;;;15.6;14.1
66206;BME280;53009;52.490;4.976;2022-08-21T04:14:06;101700;;;15.6;14
66206;BME280;53009;52.490;4.976;2022-08-21T04:19:06;101700;;;15.6;13.9
66206;BME280;53009;52.490;4.976;2022-08-21T04:24:07;101700;;;15.6;13.9
66206;BME280;53009;52.490;4.976;2022-08-21T04:29:06;101700;;;15.7;14
66206;BME280;53009;52.490;4.976;2022-08-21T04:34:06;101700;;;15.7;14
66206;BME280;53009;52.490;4.976;2022-08-21T04:39:06;101700;;;15.7;14
66206;BME280;53009;52.490;4.976;2022-08-21T04:44:06;101700;;;15.7;14
66206;BME280;53009;52.490;4.976;2022-08-21T04:49:06;101700;;;15.7;13.9
66206;BME280;53009;52.490;4.976;2022-08-21T04:54:08;101700;;;15.7;13.9
66206;BME280;53009;52.490;4.976;2022-08-21T04:59:10;101700;;;15.8;13.9
66206;BME280;53009;52.490;4.976;2022-08-21T05:04:07;101700;;;15.8;13.8
66206;BME280;53009;52.490;4.976;2022-08-21T05:09:07;101700;;;15.8;13.8
66206;BME280;53009;52.490;4.976;2022-08-21T05:14:06;101700;;;15.8;13.8
66206;BME280;53009;52.490;4.976;2022-08-21T05:19:07;101700;;;15.9;14
66206;BME280;53009;52.490;4.976;2022-08-21T05:24:06;101700;;;16;14
66206;BME280;53009;52.490;4.976;2022-08-21T05:29:06;101700;;;16.1;13.9
66206;BME280;53009;52.490;4.976;2022-08-21T05:34:06;101700;;;16.1;13.8
66206;BME280;53009;52.490;4.976;2022-08-21T05:39:06;101700;;;16.1;13.7
66206;BME280;53009;52.490;4.976;2022-08-21T05:44:06;101700;;;16.1;13.8
66206;BME280;53009;52.490;4.976;2022-08-21T05:49:06;101700;;;16.2;13.9
66206;BME280;53009;52.490;4.976;2022-08-21T05:54:07;101700;;;16.3;14
66206;BME280;53009;52.490;4.976;2022-08-21T05:59:06;101700;;;16.4;13.9
66206;BME280;53009;52.490;4.976;2022-08-21T06:04:06;101700;;;16.5;13.9
66206;BME280;53009;52.490;4.976;2022-08-21T06:09:06;101700;;;16.6;14
66206;BME280;53009;52.490;4.976;2022-08-21T06:14:07;101700;;;16.7;13.8
66206;BME280;53009;52.490;4.976;2022-08-21T06:19:06;101700;;;16.7;13.7
66206;BME280;53009;52.490;4.976;2022-08-21T06:24:07;101700;;;16.8;13.7
66206;BME280;53009;52.490;4.976;2022-08-21T06:29:06;101700;;;16.9;13.6
66206;BME280;53009;52.490;4.976;2022-08-21T06:34:06;101700;;;17;13.4
66206;BME280;53009;52.490;4.976;2022-08-21T06:39:06;101700;;;17.1;13.4
66206;BME280;53009;52.490;4.976;2022-08-21T06:44:06;101700;;;17.1;13.2
66206;BME280;53009;52.490;4.976;2022-08-21T06:49:06;101700;;;17.3;13.1
66206;BME280;53009;52.490;4.976;2022-08-21T06:54:06;101700;;;17.4;13
66206;BME280;53009;52.490;4.976;2022-08-21T06:59:07;101700;;;17.6;12.9
66206;BME280;53009;52.490;4.976;2022-08-21T07:04:06;101700;;;17.8;12.5
66206;BME280;53009;52.490;4.976;2022-08-21T07:09:06;101700;;;17.9;12.4
66206;BME280;53009;52.490;4.976;2022-08-21T07:14:06;101700;;;18.1;12.2
66206;BME280;53009;52.490;4.976;2022-08-21T07:19:06;101700;;;18.3;11.7
66206;BME280;53009;52.490;4.976;2022-08-21T07:24:06;101700;;;18.5;11.2
66206;BME280;53009;52.490;4.976;2022-08-21T07:29:06;101700;;;18.7;11.2
66206;BME280;53009;52.490;4.976;2022-08-21T07:34:06;101700;;;18.8;10.7
66206;BME280;53009;52.490;4.976;2022-08-21T07:39:07;101700;;;19;10.4
66206;BME280;53009;52.490;4.976;2022-08-21T07:44:07;101700;;;19.3;10.1
66206;BME280;53009;52.490;4.976;2022-08-21T07:49:06;101700;;;19.7;9.6
66206;BME280;53009;52.490;4.976;2022-08-21T07:54:06;101700;;;20.1;8.8
66206;BME280;53009;52.490;4.976;2022-08-21T07:59:07;101700;;;20.3;8.2
66206;BME280;53009;52.490;4.976;2022-08-21T08:04:06;101700;;;20.9;8
66206;BME280;53009;52.490;4.976;2022-08-21T08:09:07;101700;;;21.2;6.6
66206;BME280;53009;52.490;4.976;2022-08-21T08:14:06;101700;;;21.6;6.9
66206;BME280;53009;52.490;4.976;2022-08-21T08:19:07;101700;;;21.9;6
66206;BME280;53009;52.490;4.976;2022-08-21T08:24:07;101700;;;22.2;5.2
66206;BME280;53009;52.490;4.976;2022-08-21T08:29:06;101700;;;22.5;4.3
66206;BME280;53009;52.490;4.976;2022-08-21T08:34:07;101700;;;22.6;4.1
66206;BME280;53009;52.490;4.976;2022-08-21T08:39:07;101700;;;21.7;4.2
66206;BME280;53009;52.490;4.976;2022-08-21T08:44:07;101700;;;22.2;5
66206;BME280;53009;52.490;4.976;2022-08-21T08:49:08;101700;;;22.5;3.9
66206;BME280;53009;52.490;4.976;2022-08-21T08:54:11;101700;;;22.3;4.8
66206;BME280;53009;52.490;4.976;2022-08-21T08:59:08;101700;;;22.5;4.7
66206;BME280;53009;52.490;4.976;2022-08-21T09:04:07;101700;;;22.9;3.2
66206;BME280;53009;52.490;4.976;2022-08-21T09:09:11;101700;;;23.3;2.3
66206;BME280;53009;52.490;4.976;2022-08-21T09:14:09;101700;;;23.3;1.8
66206;BME280;53009;52.490;4.976;2022-08-21T09:19:08;101700;;;22.5;3.1
66206;BME280;53009;52.490;4.976;2022-08-21T09:24:12;101700;;;22;3.9
66206;BME280;53009;52.490;4.976;2022-08-21T09:29:07;101700;;;22.3;4.3
66206;BME280;53009;52.490;4.976;2022-08-21T09:34:10;101700;;;22.8;3.3
66206;BME280;53009;52.490;4.976;2022-08-21T09:39:07;101700;;;23.1;2.8
66206;BME280;53009;52.490;4.976;2022-08-21T09:44:07;101700;;;23.4;2.4
66206;BME280;53009;52.490;4.976;2022-08-21T09:49:07;101700;;;24.3;1.1
66206;BME280;53009;52.490;4.976;2022-08-21T09:54:12;101700;;;24.5;0
66206;BME280;53009;52.490;4.976;2022-08-21T09:59:25;101700;;;24.5;0
66206;BME280;53009;52.490;4.976;2022-08-21T10:04:07;101700;;;24.3;0
66206;BME280;53009;52.490;4.976;2022-08-21T10:09:08;101700;;;23.3;0
66206;BME280;53009;52.490;4.976;2022-08-21T10:14:10;101700;;;22.4;0
66206;BME280;53009;52.490;4.976;2022-08-21T10:19:12;101700;;;22.7;0
66206;BME280;53009;52.490;4.976;2022-08-21T10:24:08;101700;;;23.6;0
66206;BME280;53009;52.490;4.976;2022-08-21T10:29:08;101700;;;24.1;0
66206;BME280;53009;52.490;4.976;2022-08-21T10:34:12;101700;;;24.8;100
66206;BME280;53009;52.490;4.976;2022-08-21T10:39:08;101700;;;24.4;100
66206;BME280;53009;52.490;4.976;2022-08-21T10:44:09;101700;;;24.1;100
66206;BME280;53009;52.490;4.976;2022-08-21T10:49:09;101700;;;24.1;100
66206;BME280;53009;52.490;4.976;2022-08-21T10:54:09;101700;;;24.6;100
66206;BME280;53009;52.490;4.976;2022-08-21T10:59:23;101700;;;25.1;100
66206;BME280;53009;52.490;4.976;2022-08-21T11:04:09;101700;;;25.5;100
66206;BME280;53009;52.490;4.976;2022-08-21T11:09:09;101700;;;25.7;100
66206;BME280;53009;52.490;4.976;2022-08-21T11:14:08;101700;;;25.2;100
66206;BME280;53009;52.490;4.976;2022-08-21T11:19:09;101700;;;25;100
66206;BME280;53009;52.490;4.976;2022-08-21T11:24:12;101700;;;24.6;100
66206;BME280;53009;52.490;4.976;2022-08-21T11:29:09;101700;;;24.6;100
66206;BME280;53009;52.490;4.976;2022-08-21T11:34:10;101700;;;24.6;100
66206;BME280;53009;52.490;4.976;2022-08-21T11:39:10;101700;;;24.5;100
66206;BME280;53009;52.490;4.976;2022-08-21T11:44:09;101700;;;24.2;100
66206;BME280;53009;52.490;4.976;2022-08-21T11:49:12;101700;;;24.3;100
66206;BME280;53009;52.490;4.976;2022-08-21T11:54:08;101700;;;24.5;100
66206;BME280;53009;52.490;4.976;2022-08-21T11:59:09;101700;;;24.9;100
66206;BME280;53009;52.490;4.976;2022-08-21T12:04:08;101700;;;25.3;100
66206;BME280;53009;52.490;4.976;2022-08-21T12:09:08;101700;;;25.5;100
66206;BME280;53009;52.490;4.976;2022-08-21T12:14:12;101700;;;24.8;100
66206;BME280;53009;52.490;4.976;2022-08-21T12:19:08;101700;;;24.6;100
66206;BME280;53009;52.490;4.976;2022-08-21T12:24:15;101700;;;24.6;100
66206;BME280;53009;52.490;4.976;2022-08-21T12:29:10;101700;;;24.6;100
66206;BME280;53009;52.490;4.976;2022-08-21T12:34:07;101700;;;24.5;100
66206;BME280;53009;52.490;4.976;2022-08-21T12:39:11;101800;;;24.7;100
66206;BME280;53009;52.490;4.976;2022-08-21T12:44:08;101800;;;24.6;100
66206;BME280;53009;52.490;4.976;2022-08-21T12:49:08;101800;;;24.7;100
66206;BME280;53009;52.490;4.976;2022-08-21T12:54:07;101800;;;24.9;100
66206;BME280;53009;52.490;4.976;2022-08-21T12:59:10;101800;;;25.1;100
66206;BME280;53009;52.490;4.976;2022-08-21T13:04:08;101800;;;24.9;100
66206;BME280;53009;52.490;4.976;2022-08-21T13:09:08;101800;;;25;100
66206;BME280;53009;52.490;4.976;2022-08-21T13:14:10;101800;;;25;100
66206;BME280;53009;52.490;4.976;2022-08-21T13:19:07;101800;;;25;100
66206;BME280;53009;52.490;4.976;2022-08-21T13:24:09;101800;;;25.7;100
66206;BME280;53009;52.490;4.976;2022-08-21T13:29:07;101800;;;25.7;100
66206;BME280;53009;52.490;4.976;2022-08-21T13:34:08;101800;;;25.6;100
66206;BME280;53009;52.490;4.976;2022-08-21T13:39:08;101800;;;25;100
66206;BME280;53009;52.490;4.976;2022-08-21T13:44:13;101800;;;25.8;96.2
66206;BME280;53009;52.490;4.976;2022-08-21T13:49:07;101800;;;25.8;94.5
66206;BME280;53009;52.490;4.976;2022-08-21T13:54:15;101800;;;25.6;96.5
66206;BME280;53009;52.490;4.976;2022-08-21T13:59:07;101800;;;25.2;99.9
66206;BME280;53009;52.490;4.976;2022-08-21T14:04:15;101800;;;25;98.9
66206;BME280;53009;52.490;4.976;2022-08-21T14:09:08;101700;;;25.6;99.9
66206;BME280;53009;52.490;4.976;2022-08-21T14:14:12;101800;;;25.6;96.6
66206;BME280;53009;52.490;4.976;2022-08-21T14:19:08;101700;;;25.6;100
66206;BME280;53009;52.490;4.976;2022-08-21T14:24:09;101700;;;25.6;97
66206;BME280;53009;52.490;4.976;2022-08-21T14:29:07;101800;;;25.4;96.6
66206;BME280;53009;52.490;4.976;2022-08-21T14:34:07;101800;;;25.5;95.9
66206;BME280;53009;52.490;4.976;2022-08-21T14:39:07;101800;;;25.3;99.5
66206;BME280;53009;52.490;4.976;2022-08-21T14:44:07;101700;;;25.2;100
66206;BME280;53009;52.490;4.976;2022-08-21T14:49:07;101800;;;25.1;100
66206;BME280;53009;52.490;4.976;2022-08-21T14:54:07;101800;;;24.6;99.2
66206;BME280;53009;52.490;4.976;2022-08-21T14:59:07;101800;;;24.4;100
66206;BME280;53009;52.490;4.976;2022-08-21T15:04:07;101800;;;24.2;100
66206;BME280;53009;52.490;4.976;2022-08-21T15:09:07;101800;;;24.4;100
66206;BME280;53009;52.490;4.976;2022-08-21T15:14:08;101800;;;24.6;100
66206;BME280;53009;52.490;4.976;2022-08-21T15:15:29;101800;;;24.6;100
66206;BME280;53009;52.490;4.976;2022-08-21T15:20:43;101800;;;25.1;100
66206;BME280;53009;52.490;4.976;2022-08-21T15:21:49;101800;;;25;100
66206;BME280;53009;52.490;4.976;2022-08-21T15:26:50;101800;;;25;100
66206;BME280;53009;52.490;4.976;2022-08-21T15:27:39;101800;;;25;100
66206;BME280;53009;52.490;4.976;2022-08-21T15:30:57;101800;;;25;99.8
66206;BME280;53009;52.490;4.976;2022-08-21T15:33:56;101800;;;25;100
66206;BME280;53009;52.490;4.976;2022-08-21T15:35:10;101800;;;25;100
66206;BME280;53009;52.490;4.976;2022-08-21T15:36:50;101800;;;25;100
66206;BME280;53009;52.490;4.976;2022-08-21T15:39:56;101800;;;24.9;100
66206;BME280;53009;52.490;4.976;2022-08-21T15:42:14;101800;;;24.9;100
66206;BME280;53009;52.490;4.976;2022-08-21T15:45:20;101800;;;24.6;100
66206;BME280;53009;52.490;4.976;2022-08-21T15:46:34;101800;;;24.6;100
66206;BME280;53009;52.490;4.976;2022-08-21T15:51:34;101800;;;24.5;100
66206;BME280;53009;52.490;4.976;2022-08-21T15:56:35;101800;;;24.4;100
66206;BME280;53009;52.490;4.976;2022-08-21T16:01:35;101800;;;24.3;100
66206;BME280;53009;52.490;4.976;2022-08-21T16:06:34;101800;;;24.1;100
66206;BME280;53009;52.490;4.976;2022-08-21T16:11:34;101800;;;24.1;100
66206;BME280;53009;52.490;4.976;2022-08-21T16:16:34;101800;;;23.9;100
66206;BME280;53009;52.490;4.976;2022-08-21T16:21:34;101800;;;23.8;100
66206;BME280;53009;52.490;4.976;2022-08-21T16:26:34;101800;;;23.8;100
66206;BME280;53009;52.490;4.976;2022-08-21T16:31:34;101800;;;23.7;100
66206;BME280;53009;52.490;4.976;2022-08-21T16:36:34;101800;;;23.7;100
66206;BME280;53009;52.490;4.976;2022-08-21T16:41:34;101800;;;23.6;100
66206;BME280;53009;52.490;4.976;2022-08-21T16:46:35;101800;;;23.2;100
66206;BME280;53009;52.490;4.976;2022-08-21T16:51:34;101800;;;23.1;100
66206;BME280;53009;52.490;4.976;2022-08-21T16:56:34;101800;;;23.1;100
66206;BME280;53009;52.490;4.976;2022-08-21T17:01:34;101800;;;23;100
66206;BME280;53009;52.490;4.976;2022-08-21T17:06:34;101800;;;22.8;100
66206;BME280;53009;52.490;4.976;2022-08-21T17:11:36;101800;;;22.7;100
66206;BME280;53009;52.490;4.976;2022-08-21T17:16:35;101800;;;22.6;100
66206;BME280;53009;52.490;4.976;2022-08-21T17:21:34;101800;;;22.5;100
66206;BME280;53009;52.490;4.976;2022-08-21T17:26:34;101800;;;22.5;100
66206;BME280;53009;52.490;4.976;2022-08-21T17:31:34;101800;;;22.3;100
66206;BME280;53009;52.490;4.976;2022-08-21T17:36:34;101800;;;22.3;100
66206;BME280;53009;52.490;4.976;2022-08-21T17:41:34;101800;;;22.3;100
66206;BME280;53009;52.490;4.976;2022-08-21T17:46:34;101800;;;22.2;100
66206;BME280;53009;52.490;4.976;2022-08-21T17:51:34;101800;;;22;0
66206;BME280;53009;52.490;4.976;2022-08-21T17:56:35;101800;;;22;100
66206;BME280;53009;52.490;4.976;2022-08-21T18:01:36;101800;;;21.9;0
66206;BME280;53009;52.490;4.976;2022-08-21T18:06:34;101800;;;22;0
66206;BME280;53009;52.490;4.976;2022-08-21T18:11:34;101800;;;21.9;0
66206;BME280;53009;52.490;4.976;2022-08-21T18:16:35;101800;;;21.8;0
66206;BME280;53009;52.490;4.976;2022-08-21T18:21:34;101800;;;21.8;0
66206;BME280;53009;52.490;4.976;2022-08-21T18:26:35;101800;;;21.7;0
66206;BME280;53009;52.490;4.976;2022-08-21T18:31:35;101800;;;21.6;0
66206;BME280;53009;52.490;4.976;2022-08-21T18:36:34;101800;;;21.5;0
66206;BME280;53009;52.490;4.976;2022-08-21T18:41:34;101800;;;21.5;0
66206;BME280;53009;52.490;4.976;2022-08-21T18:46:34;101800;;;21.4;0
66206;BME280;53009;52.490;4.976;2022-08-21T18:51:34;101800;;;21.3;0
66206;BME280;53009;52.490;4.976;2022-08-21T18:56:34;101800;;;21.3;0
66206;BME280;53009;52.490;4.976;2022-08-21T19:01:34;101800;;;21.3;0
66206;BME280;53009;52.490;4.976;2022-08-21T19:06:35;101800;;;21.2;1.2
66206;BME280;53009;52.490;4.976;2022-08-21T19:11:34;101800;;;21.1;2.2
66206;BME280;53009;52.490;4.976;2022-08-21T19:16:35;101800;;;21;2.9
66206;BME280;53009;52.490;4.976;2022-08-21T19:21:34;101800;;;20.9;3.5
66206;BME280;53009;52.490;4.976;2022-08-21T19:26:34;101800;;;20.8;4
66206;BME280;53009;52.490;4.976;2022-08-21T19:31:37;101800;;;20.7;4.6
66206;BME280;53009;52.490;4.976;2022-08-21T19:36:34;101800;;;20.6;5
66206;BME280;53009;52.490;4.976;2022-08-21T19:41:36;101800;;;20.5;5.4
66206;BME280;53009;52.490;4.976;2022-08-21T19:46:35;101800;;;20.5;5.4
66206;BME280;53009;52.490;4.976;2022-08-21T19:51:34;101800;;;20.4;5.4
66206;BME280;53009;52.490;4.976;2022-08-21T19:56:35;101800;;;20.3;5.6
66206;BME280;53009;52.490;4.976;2022-08-21T20:01:34;101800;;;20.2;5.8
66206;BME280;53009;52.490;4.976;2022-08-21T20:06:35;101800;;;20.1;6.1
66206;BME280;53009;52.490;4.976;2022-08-21T20:11:35;101800;;;20.1;6.2
66206;BME280;53009;52.490;4.976;2022-08-21T20:16:35;101800;;;20;6.3
66206;BME280;53009;52.490;4.976;2022-08-21T20:21:35;101800;;;19.9;6.5
66206;BME280;53009;52.490;4.976;2022-08-21T20:26:35;101800;;;19.8;6.6
66206;BME280;53009;52.490;4.976;2022-08-21T20:31:34;101800;;;19.8;6.8
66206;BME280;53009;52.490;4.976;2022-08-21T20:36:34;101800;;;19.7;7
66206;BME280;53009;52.490;4.976;2022-08-21T20:41:34;101800;;;19.7;7.2
66206;BME280;53009;52.490;4.976;2022-08-21T20:46:35;101800;;;19.6;7.4
66206;BME280;53009;52.490;4.976;2022-08-21T20:51:36;101800;;;19.6;7.5
66206;BME280;53009;52.490;4.976;2022-08-21T20:56:36;101800;;;19.5;7.7
66206;BME280;53009;52.490;4.976;2022-08-21T21:01:35;101800;;;19.4;7.9
66206;BME280;53009;52.490;4.976;2022-08-21T21:06:35;101800;;;19.4;8.1
66206;BME280;53009;52.490;4.976;2022-08-21T21:11:35;101800;;;19.4;8.2
66206;BME280;53009;52.490;4.976;2022-08-21T21:16:35;101800;;;19.4;8.4
66206;BME280;53009;52.490;4.976;2022-08-21T21:21:36;101800;;;19.3;8.5
66206;BME280;53009;52.490;4.976;2022-08-21T21:26:36;101800;;;19.3;8.6
66206;BME280;53009;52.490;4.976;2022-08-21T21:31:35;101800;;;19.3;8.7
66206;BME280;53009;52.490;4.976;2022-08-21T21:36:36;101800;;;19.3;8.9
66206;BME280;53009;52.490;4.976;2022-08-21T21:41:36;101800;;;19.3;9
66206;BME280;53009;52.490;4.976;2022-08-21T21:46:36;101800;;;19.3;9.2
66206;BME280;53009;52.490;4.976;2022-08-21T21:51:38;101800;;;19.3;9.2
66206;BME280;53009;52.490;4.976;2022-08-21T21:56:37;101800;;;19.2;9.4
66206;BME280;53009;52.490;4.976;2022-08-21T22:01:37;101800;;;19.2;9.5
66206;BME280;53009;52.490;4.976;2022-08-21T22:06:38;101800;;;19.2;9.7
66206;BME280;53009;52.490;4.976;2022-08-21T22:11:44;101800;;;19.1;9.8
66206;BME280;53009;52.490;4.976;2022-08-21T22:16:38;101800;;;19.1;9.9
66206;BME280;53009;52.490;4.976;2022-08-21T22:17:55;101800;;;19.1;9.9
66206;BME280;53009;52.490;4.976;2022-08-21T22:18:40;101800;;;19.1;9.9
66206;BME280;53009;52.490;4.976;2022-08-21T22:23:18;101800;;;19;10
66206;BME280;53009;52.490;4.976;2022-08-21T22:25:42;101800;;;19;10
66206;BME280;53009;52.490;4.976;2022-08-21T22:26:48;101800;;;19;10
66206;BME280;53009;52.490;4.976;2022-08-21T22:29:55;101800;;;19;10
66206;BME280;53009;52.490;4.976;2022-08-21T22:31:12;101800;;;19;10
66206;BME280;53009;52.490;4.976;2022-08-21T22:33:26;101800;;;18.9;10
66206;BME280;53009;52.490;4.976;2022-08-21T22:38:30;101800;;;18.8;10
66206;BME280;53009;52.490;4.976;2022-08-21T22:41:51;101800;;;18.8;10
66206;BME280;53009;52.490;4.976;2022-08-21T22:43:52;101800;;;18.8;10.1
66206;BME280;53009;52.490;4.976;2022-08-21T22:45:50;101800;;;18.7;10.1
66206;BME280;53009;52.490;4.976;2022-08-21T22:48:13;101800;;;18.7;10.2
66206;BME280;53009;52.490;4.976;2022-08-21T22:51:36;101800;;;18.7;10.1
66206;BME280;53009;52.490;4.976;2022-08-21T22:52:56;101800;;;18.7;10.3
66206;BME280;53009;52.490;4.976;2022-08-21T22:54:20;101800;;;18.6;10.3
66206;BME280;53009;52.490;4.976;2022-08-21T22:55:34;101800;;;18.6;10.3
66206;BME280;53009;52.490;4.976;2022-08-21T22:56:32;101800;;;18.6;10.3
66206;BME280;53009;52.490;4.976;2022-08-21T22:59:00;101800;;;18.6;10.3
66206;BME280;53009;52.490;4.976;2022-08-21T23:01:11;101800;;;18.5;10.3
66206;BME280;53009;52.490;4.976;2022-08-21T23:05:30;101800;;;18.5;10.2
66206;BME280;53009;52.490;4.976;2022-08-21T23:09:17;101800;;;18.4;10.3
66206;BME280;53009;52.490;4.976;2022-08-21T23:09:58;101800;;;18.4;10.4
66206;BME280;53009;52.490;4.976;2022-08-21T23:10:48;101800;;;18.3;10.5
66206;BME280;53009;52.490;4.976;2022-08-21T23:13:07;101800;;;18.4;10.5
66206;BME280;53009;52.490;4.976;2022-08-21T23:17:28;101800;;;18.3;10.5
66206;BME280;53009;52.490;4.976;2022-08-21T23:18:49;101800;;;18.3;10.5
66206;BME280;53009;52.490;4.976;2022-08-21T23:22:03;101800;;;18.2;10.5
66206;BME280;53009;52.490;4.976;2022-08-21T23:23:09;101800;;;18.2;10.5
66206;BME280;53009;52.490;4.976;2022-08-21T23:28:08;101800;;;18.1;10.6
66206;BME280;53009;52.490;4.976;2022-08-21T23:28:44;101800;;;18.1;10.6
66206;BME280;53009;52.490;4.976;2022-08-21T23:29:54;101800;;;18.1;10.6
66206;BME280;53009;52.490;4.976;2022-08-21T23:32:29;101800;;;18.1;10.7
66206;BME280;53009;52.490;4.976;2022-08-21T23:35:43;101800;;;18;10.7
66206;BME280;53009;52.490;4.976;2022-08-21T23:39:03;101800;;;18;10.8
66206;BME280;53009;52.490;4.976;2022-08-21T23:41:31;101800;;;17.9;10.8
66206;BME280;53009;52.490;4.976;2022-08-21T23:43:04;101800;;;17.9;10.8
66206;BME280;53009;52.490;4.976;2022-08-21T23:48:02;101800;;;17.9;11
66206;BME280;53009;52.490;4.976;2022-08-21T23:50:57;101800;;;17.8;11.1
66206;BME280;53009;52.490;4.976;2022-08-21T23:56:00;101800;;;17.8;11.2
66206;BME280;53009;52.490;4.976;2022-08-21T23:56:43;101800;;;17.8;11.2
